Flight Track Log - Related Links

Times and Time Zones

All times are in EST time to prevent confusion due to time zone crossing. See the SWA1867 flight status page for this flight to view local times or setup timezone preferences in your user account.

Time Position Orientation Groundspeed Altitude Reporting Facility
EST Latitude Longitude Course Direction KTS MPH feet Rate Location/Type
Sun 02:05:31 PM 34.1775 -118.3578 226° Southwest 163 188 2,100  Level Los Angeles Center
Sun 02:06:33 PM 34.1389 -118.4058 226° Southwest 203 234 4,900 2,661 Climbing Los Angeles Center
Sun 02:07:35 PM 34.1669 -118.4769 296° West 258 297 7,600 3,532 Climbing Los Angeles Center
Sun 02:08:37 PM 34.2381 -118.5169 335° Northwest 279 321 12,200 2,661 Climbing Los Angeles Center
Sun 02:09:39 PM 34.3092 -118.5592 334° Northwest 284 327 13,100 871 Climbing Los Angeles Center
Sun 02:10:41 PM 34.3975 -118.6122 334° Northwest 297 342 14,000 968 Climbing Los Angeles Center
Sun 02:11:43 PM 34.4700 -118.6569 333° Northwest 294 338 15,100 2,129 Climbing Los Angeles Center
Sun 02:12:45 PM 34.5442 -118.6997 335° Northwest 295 339 18,400 2,661 Climbing Los Angeles Center
Sun 02:13:47 PM 34.6250 -118.7508 333° Northwest 328 377 20,600 2,160 Climbing Los Angeles Center
Sun 02:14:50 PM 34.7186 -118.8111 332° Northwest 382 440 22,900 2,400 Climbing Los Angeles Center
Sun 02:15:52 PM 34.8156 -118.8711 333° Northwest 390 449 25,600 2,710 Climbing Los Angeles Center
Sun 02:16:54 PM 34.9281 -118.9639 326° Northwest 400 460 28,500 2,468 Climbing Los Angeles Center
Sun 02:17:56 PM 35.0206 -119.0425 325° Northwest 405 466 30,700 2,323 Climbing Los Angeles Center
Sun 02:18:58 PM 35.0867 -119.1517 307° West 410 472 33,300 1,985 Climbing Los Angeles Center
Sun 02:20:12 PM 35.1444 -119.2647 302° West 399 459 35,200 1,611 Climbing Los Angeles Center
Sun 02:21:27 PM 35.2133 -119.4011 302° West 394 453 37,300 1,696 Climbing Los Angeles Center
Sun 02:22:30 PM 35.2803 -119.5350 302° West 389 448 39,100 1,306 Climbing Los Angeles Center
Sun 02:23:31 PM 35.3475 -119.6675 302° West 385 443 40,000 439 Climbing Los Angeles Center
Sun 02:24:33 PM 35.4036 -119.7792 302° West 388 447 40,000  Level Los Angeles Center
Sun 02:25:36 PM 35.4597 -119.8897 302° West 383 441 40,000  Level Los Angeles Center
Sun 02:26:38 PM 35.5156 -120.0031 301° West 390 449 40,000  Level Los Angeles Center
Sun 02:27:40 PM 35.5819 -120.1367 301° West 391 450 40,000  Level Los Angeles Center
Sun 02:28:42 PM 35.6378 -120.2536 300° West 393 452 40,000  Level Los Angeles Center
Sun 02:29:44 PM 35.6922 -120.3608 302° West 387 445 40,000  Level Los Angeles Center
Sun 02:30:46 PM 35.7619 -120.4564 312° West 383 441 40,000  Level Los Angeles Center
Sun 02:31:48 PM 35.8181 -120.5325 312° West 378 435 40,000  Level Los Angeles Center
Sun 02:33:02 PM 35.9161 -120.6661 312° West 376 433 40,000 -1,007 Level Los Angeles Center
Sun 02:34:05 PM 35.9983 -120.7794 312° West 371 427 37,700 -2,362 Descending Los Angeles Center
Sun 02:35:09 PM 36.0675 -120.8756 312° West 376 433 35,000 -2,857 Descending Oakland Center
Sun 02:36:11 PM 36.1408 -120.9750 312° West 390 449 31,700 -3,122 Descending Oakland Center
Sun 02:37:12 PM 36.2167 -121.0811 312° West 407 468 28,600 -3,122 Descending Oakland Center
Sun 02:38:14 PM 36.3100 -121.2119 312° West 420 483 25,300 -2,927 Descending Oakland Center
Sun 02:39:15 PM 36.3858 -121.3183 312° West 415 478 22,600 -2,390 Descending Oakland Center
Sun 02:40:17 PM 36.4567 -121.4186 311° West 392 451 20,400 -2,341 Descending Oakland Center
Sun 02:41:18 PM 36.5506 -121.4681 337° Northwest 371 427 17,800 -2,537 Descending Oakland Center
Sun 02:42:20 PM 36.6517 -121.4867 352° North 365 420 15,200 -2,323 Descending Oakland Center
Sun 02:43:22 PM 36.7472 -121.5056 351° North 352 405 13,000 -2,537 Descending Oakland Center
Sun 02:44:23 PM 36.8431 -121.5464 341° North 342 394 10,000 -1,707 Descending Oakland Center
Sun 02:45:25 PM 36.9197 -121.5875 337° Northwest 306 352 9,500 -1,065 Descending Oakland Center
Sun 02:46:27 PM 36.9892 -121.6244 337° Northwest 278 320 7,800 -1,561 Descending Oakland Center
Sun 02:47:28 PM 37.0575 -121.6592 338° Northwest 267 307 6,300 -1,377 Descending Oakland Center
Sun 02:48:29 PM 37.1367 -121.6986 338° Northwest 259 298 5,000 -976 Descending Oakland Center
Sun 02:49:31 PM 37.1928 -121.7367 332° Northwest 247 284 4,300 -871 Descending Oakland Center
Sun 02:50:33 PM 37.2311 -121.7889 313° West 219 252 3,200 -1,024 Descending Oakland Center
Sun 02:51:34 PM 37.2711 -121.8308 320° Northwest 202 232 2,200 -878 Descending Oakland Center
Sun 02:52:36 PM 37.3061 -121.8697 319° Northwest 186 214 1,400 -732 Descending Oakland Center
Sun 02:53:37 PM 37.3328 -121.8956 322° Northwest 148 170 700 9,073 Descending Oakland Center
Sun 02:54:39 PM 37.3614 -121.9264 319° Northwest 137 158 20,000 18,677 Climbing Oakland Center
Sun 02:56:00 PM 37.3627 -121.9291 North  Level Estimated

Login

Don't have an account? Register now (free) for customized features, flight alerts, and more!